Time;durP1;ratioP1;P1;durP2;ratioP2;P2;SDS_P1;SDS_P2;PMS_P1;PMS_P2;Temp;Humidity;BMP_temperature;BMP_pressure;BME280_temperature;BME280_humidity;BME280_pressure;Samples;Min_cycle;Max_cycle;Signal;HPM_P1;HPM_P2
2020/12/11 00:01:30;;;;;;;18.60;5.85;;;18.40;54.80;;;;;;5099152;28;20046;-80
2020/12/11 00:03:57;;;;;;;21.30;5.72;;;18.20;55.40;;;;;;5112963;28;20042;-78
2020/12/11 00:06:24;;;;;;;17.33;5.13;;;18.00;55.40;;;;;;5113224;28;20024;-80
2020/12/11 00:08:51;;;;;;;22.75;5.32;;;17.60;56.20;;;;;;5113504;28;20031;-82
2020/12/11 00:11:25;;;;;;;22.08;5.57;;;17.10;57.00;;;;;;5112857;28;20118;-77
2020/12/11 00:13:52;;;;;;;26.65;6.30;;;16.60;57.90;;;;;;5113073;28;20085;-78
2020/12/11 00:16:19;;;;;;;20.58;5.05;;;16.10;58.50;;;;;;5112530;28;20019;-79
2020/12/11 00:18:47;;;;;;;12.68;4.47;;;15.70;59.10;;;;;;5108296;28;20391;-80
2020/12/11 00:21:14;;;;;;;14.70;4.65;;;15.40;59.70;;;;;;5092777;28;20028;-80
2020/12/11 00:23:41;;;;;;;14.38;4.05;;;15.20;60.10;;;;;;5106041;28;20023;-80
2020/12/11 00:26:08;;;;;;;18.30;4.60;;;14.90;61.30;;;;;;5112890;28;20027;-80
2020/12/11 00:28:35;;;;;;;24.35;4.88;;;14.70;62.30;;;;;;5099403;28;20035;-78
2020/12/11 00:31:01;;;;;;;21.02;4.78;;;14.40;64.50;;;;;;5092460;28;20035;-80
2020/12/11 00:33:28;;;;;;;19.00;5.38;;;14.20;66.00;;;;;;5093497;28;20028;-79
2020/12/11 00:35:58;;;;;;;20.30;5.13;;;14.00;68.20;;;;;;5108665;28;20031;-78
2020/12/11 00:38:29;;;;;;;22.92;5.80;;;13.80;69.90;;;;;;5112509;28;20493;-77
2020/12/11 00:40:57;;;;;;;19.70;6.07;;;13.70;72.00;;;;;;5112522;28;20031;-77
2020/12/11 00:43:24;;;;;;;22.52;5.95;;;13.40;76.00;;;;;;5112518;28;20028;-76
2020/12/11 00:45:51;;;;;;;21.48;6.63;;;13.30;77.80;;;;;;5112540;28;20031;-77
2020/12/11 00:48:18;;;;;;;24.25;5.72;;;13.10;80.80;;;;;;5110764;28;20040;-76
2020/12/11 00:50:45;;;;;;;20.77;5.63;;;12.90;83.20;;;;;;5110372;28;20031;-77
2020/12/11 00:53:12;;;;;;;29.15;5.88;;;12.80;85.20;;;;;;5112462;28;20441;-79
2020/12/11 00:55:39;;;;;;;20.63;5.30;;;12.80;87.00;;;;;;5112247;28;20471;-78
2020/12/11 00:58:06;;;;;;;28.63;6.13;;;12.60;88.70;;;;;;5112079;28;20039;-78
2020/12/11 01:00:33;;;;;;;26.20;5.50;;;12.50;90.60;;;;;;5112089;28;20035;-78
2020/12/11 01:03:00;;;;;;;28.25;6.32;;;12.20;91.80;;;;;;5112148;28;20031;-78
2020/12/11 01:05:27;;;;;;;24.90;6.07;;;12.10;93.00;;;;;;5112326;28;20024;-77
2020/12/11 01:07:54;;;;;;;27.95;6.18;;;12.00;93.60;;;;;;5111928;28;20046;-77
2020/12/11 01:10:21;;;;;;;27.05;7.07;;;11.80;95.40;;;;;;5111492;28;20035;-78
2020/12/11 01:12:48;;;;;;;31.15;6.75;;;11.60;97.00;;;;;;5111796;28;20093;-79
2020/12/11 01:15:15;;;;;;;36.03;8.48;;;11.50;97.30;;;;;;5111990;28;20023;-76
2020/12/11 01:17:42;;;;;;;24.52;5.75;;;11.30;98.70;;;;;;5111466;28;20046;-76
2020/12/11 01:20:09;;;;;;;23.52;5.93;;;11.30;98.20;;;;;;5111819;28;20031;-75
2020/12/11 01:22:36;;;;;;;28.23;6.70;;;11.20;98.60;;;;;;5111341;28;20020;-75
2020/12/11 01:25:03;;;;;;;34.70;6.10;;;11.20;98.60;;;;;;5111463;28;20039;-75
2020/12/11 01:27:30;;;;;;;27.05;5.78;;;11.10;98.80;;;;;;5111630;28;20027;-75
2020/12/11 01:29:57;;;;;;;33.08;7.40;;;11.00;99.40;;;;;;5111478;28;20027;-76
2020/12/11 01:32:24;;;;;;;36.75;8.27;;;10.80;99.90;;;;;;5111451;28;20024;-74
2020/12/11 01:34:50;;;;;;;26.63;7.28;;;10.60;99.90;;;;;;5111651;28;20038;-75
2020/12/11 01:37:17;;;;;;;27.63;7.13;;;10.70;99.30;;;;;;5111590;28;20042;-75
2020/12/11 01:39:44;;;;;;;19.55;5.53;;;10.80;97.50;;;;;;5109268;28;20042;-73
2020/12/11 01:42:13;;;;;;;35.83;9.30;;;10.80;95.20;;;;;;5111182;28;20046;-76
2020/12/11 01:44:50;;;;;;;23.70;7.18;;;10.70;97.90;;;;;;5091722;28;20036;-74
2020/12/11 01:47:18;;;;;;;19.52;5.88;;;10.50;97.90;;;;;;5093203;28;20040;-76
2020/12/11 01:49:46;;;;;;;22.15;5.18;;;10.40;98.20;;;;;;5091935;28;20027;-76
2020/12/11 01:52:17;;;;;;;13.55;3.35;;;10.40;96.40;;;;;;5091245;28;20408;-75
2020/12/11 01:54:46;;;;;;;23.13;6.13;;;10.60;92.70;;;;;;5098711;28;20024;-75
2020/12/11 01:57:54;;;;;;;20.38;8.07;;;10.80;90.60;;;;;;5111311;28;20050;-73
2020/12/11 02:00:21;;;;;;;10.00;3.80;;;11.00;90.80;;;;;;5028720;28;20414;-74
2020/12/11 02:02:55;;;;;;;12.30;4.25;;;11.00;90.90;;;;;;5010214;28;20048;-74
2020/12/11 02:05:22;;;;;;;14.50;3.35;;;11.00;90.40;;;;;;5024953;28;20041;-73
2020/12/11 02:07:49;;;;;;;13.98;5.13;;;11.00;89.80;;;;;;5012432;28;20049;-73
2020/12/11 02:10:16;;;;;;;16.77;6.97;;;11.00;88.70;;;;;;5008864;28;20597;-74
2020/12/11 02:12:43;;;;;;;17.05;5.22;;;10.90;89.40;;;;;;5009570;28;20045;-74
2020/12/11 02:15:10;;;;;;;21.73;6.13;;;10.90;92.60;;;;;;5007946;28;20617;-73
2020/12/11 02:17:37;;;;;;;26.55;10.13;;;10.70;93.10;;;;;;5016575;28;20037;-73
2020/12/11 02:20:05;;;;;;;24.80;12.40;;;10.50;92.90;;;;;;5028515;28;20133;-73
2020/12/11 02:22:32;;;;;;;19.48;9.50;;;10.40;93.80;;;;;;5016349;28;20040;-73
2020/12/11 02:24:59;;;;;;;15.57;6.20;;;10.50;92.20;;;;;;5026378;28;20033;-74
2020/12/11 02:27:25;;;;;;;14.55;4.68;;;10.60;91.70;;;;;;5031855;28;20432;-74
2020/12/11 02:29:53;;;;;;;14.45;4.10;;;10.60;90.50;;;;;;5031471;28;20398;-73
2020/12/11 02:32:20;;;;;;;15.60;4.72;;;10.70;89.40;;;;;;5094819;28;20027;-75
2020/12/11 02:34:47;;;;;;;14.70;3.55;;;10.70;89.90;;;;;;5112149;28;20031;-74
2020/12/11 02:37:14;;;;;;;16.48;3.22;;;10.60;88.70;;;;;;5099721;28;20024;-73
2020/12/11 02:39:42;;;;;;;13.23;3.22;;;10.60;88.50;;;;;;5094274;28;20031;-74
2020/12/11 02:42:09;;;;;;;10.73;3.22;;;10.60;88.30;;;;;;5095534;28;20036;-74
2020/12/11 02:44:36;;;;;;;13.75;4.03;;;10.60;88.00;;;;;;5109905;28;20034;-73
2020/12/11 02:47:03;;;;;;;16.35;3.78;;;10.60;88.20;;;;;;5092459;28;20024;-73
2020/12/11 02:49:30;;;;;;;16.33;3.88;;;10.60;88.50;;;;;;5094538;28;20048;-73
2020/12/11 02:51:57;;;;;;;13.05;3.00;;;10.60;88.80;;;;;;5094762;28;20432;-74
2020/12/11 02:54:24;;;;;;;12.57;2.97;;;10.60;88.00;;;;;;5109744;28;20030;-73
2020/12/11 02:56:51;;;;;;;11.75;3.08;;;10.60;87.80;;;;;;5114414;28;20459;-73
2020/12/11 02:59:18;;;;;;;13.93;3.10;;;10.60;87.20;;;;;;5112356;28;20035;-74
2020/12/11 03:01:45;;;;;;;17.67;3.70;;;10.50;86.40;;;;;;5114389;28;20039;-74
2020/12/11 03:04:12;;;;;;;16.60;3.22;;;10.50;88.20;;;;;;5112070;28;20031;-73
2020/12/11 03:06:39;;;;;;;12.07;3.38;;;10.40;89.80;;;;;;5095122;28;20495;-73
2020/12/11 03:09:10;;;;;;;10.93;3.60;;;10.30;89.50;;;;;;5092015;28;20051;-73
2020/12/11 03:11:37;;;;;;;15.45;3.13;;;10.30;90.30;;;;;;5098374;28;20020;-73
2020/12/11 03:14:03;;;;;;;21.50;4.88;;;10.20;90.20;;;;;;5113962;28;20024;-78
2020/12/11 03:16:31;;;;;;;16.10;3.30;;;10.20;89.40;;;;;;5111558;28;20384;-73
2020/12/11 03:19:00;;;;;;;13.63;3.20;;;10.20;90.20;;;;;;5114237;28;20026;-73
2020/12/11 03:21:27;;;;;;;17.42;3.15;;;10.20;90.00;;;;;;5112403;28;20036;-72
2020/12/11 03:23:54;;;;;;;18.05;4.78;;;10.20;90.50;;;;;;5113898;28;20035;-72
2020/12/11 03:26:21;;;;;;;17.85;3.53;;;10.20;90.40;;;;;;5113750;28;20038;-72
2020/12/11 03:28:51;;;;;;;9.27;2.45;;;10.20;90.60;;;;;;5113731;28;20039;-72
2020/12/11 03:31:19;;;;;;;17.23;3.00;;;10.10;90.50;;;;;;5113670;28;20031;-75
2020/12/11 03:33:46;;;;;;;16.63;3.30;;;10.10;90.60;;;;;;5113195;28;20023;-74
2020/12/11 03:36:18;;;;;;;12.25;3.20;;;10.20;90.00;;;;;;5113826;28;20031;-72
2020/12/11 03:38:45;;;;;;;14.73;4.10;;;10.10;90.30;;;;;;5113692;28;20028;-74
2020/12/11 03:41:18;;;;;;;12.35;2.63;;;10.10;90.60;;;;;;5113535;28;20020;-74
2020/12/11 03:43:45;;;;;;;17.75;3.95;;;10.00;90.80;;;;;;5113875;28;20028;-74
2020/12/11 03:46:20;;;;;;;12.80;3.45;;;10.00;91.50;;;;;;5113736;28;20034;-73
2020/12/11 03:48:49;;;;;;;18.08;3.78;;;9.90;91.60;;;;;;5113502;28;20388;-74
2020/12/11 03:51:24;;;;;;;11.30;3.15;;;9.90;91.50;;;;;;5113556;28;20024;-74
2020/12/11 03:53:51;;;;;;;14.57;3.75;;;9.90;92.20;;;;;;5113491;28;20034;-74
2020/12/11 03:56:19;;;;;;;18.95;3.35;;;9.80;92.20;;;;;;5113485;28;20042;-72
2020/12/11 03:58:46;;;;;;;16.15;3.83;;;9.70;92.50;;;;;;5113512;28;20454;-74
2020/12/11 04:01:14;;;;;;;13.68;3.45;;;9.60;92.90;;;;;;5113399;28;20022;-73
2020/12/11 04:03:41;;;;;;;16.80;3.75;;;9.60;92.80;;;;;;5113255;28;20033;-73
2020/12/11 04:06:10;;;;;;;17.30;3.80;;;9.60;92.40;;;;;;5113307;28;20035;-73
2020/12/11 04:08:37;;;;;;;16.48;3.85;;;9.60;92.20;;;;;;5113218;28;20142;-72
2020/12/11 04:11:10;;;;;;;13.05;3.22;;;9.60;93.50;;;;;;5113045;28;20016;-74
2020/12/11 04:13:37;;;;;;;18.40;3.70;;;9.60;92.60;;;;;;5110353;28;20032;-74
2020/12/11 04:16:05;;;;;;;13.60;3.47;;;9.60;92.20;;;;;;5097453;28;20036;-74
2020/12/11 04:18:32;;;;;;;13.00;2.78;;;9.60;92.90;;;;;;5100936;28;20336;-73
2020/12/11 04:20:59;;;;;;;11.20;2.30;;;9.60;93.00;;;;;;5112777;28;20480;-74
2020/12/11 04:23:27;;;;;;;9.95;2.38;;;9.60;92.00;;;;;;5112612;28;20098;-73
2020/12/11 04:25:55;;;;;;;10.15;2.05;;;9.60;91.80;;;;;;5112913;28;20024;-73
2020/12/11 04:28:22;;;;;;;11.65;2.22;;;9.60;91.50;;;;;;5112785;28;20407;-73
2020/12/11 04:30:49;;;;;;;11.50;2.83;;;9.60;91.60;;;;;;5112300;28;20016;-73
2020/12/11 04:33:16;;;;;;;10.52;2.03;;;9.60;91.50;;;;;;5112874;28;20038;-73
2020/12/11 04:35:44;;;;;;;12.52;2.67;;;9.50;91.30;;;;;;5107045;28;20031;-71
2020/12/11 04:38:11;;;;;;;9.05;2.67;;;9.50;91.50;;;;;;5104070;28;20039;-72
2020/12/11 04:40:37;;;;;;;7.25;2.22;;;9.50;91.90;;;;;;5092110;28;20024;-72
2020/12/11 04:43:08;;;;;;;9.65;2.53;;;9.40;91.70;;;;;;5092248;28;20115;-72
2020/12/11 04:45:43;;;;;;;8.32;2.10;;;9.30;92.30;;;;;;5097551;28;20027;-71
2020/12/11 04:48:13;;;;;;;13.40;2.25;;;9.30;92.00;;;;;;5111126;28;20036;-72
2020/12/11 04:50:40;;;;;;;15.85;2.70;;;9.20;93.10;;;;;;5112448;28;20472;-72
2020/12/11 04:53:14;;;;;;;13.35;3.15;;;9.10;93.40;;;;;;5112250;28;20399;-72
2020/12/11 04:55:43;;;;;;;16.02;3.45;;;9.10;93.50;;;;;;5112427;28;20035;-74
2020/12/11 04:58:16;;;;;;;10.75;3.58;;;9.10;94.10;;;;;;5112313;28;20058;-72
2020/12/11 05:00:43;;;;;;;22.92;8.60;;;9.00;94.10;;;;;;5112303;28;20030;-73
2020/12/11 05:03:20;;;;;;;14.13;5.15;;;8.80;94.50;;;;;;5110982;28;20030;-73
2020/12/11 05:05:47;;;;;;;14.80;4.30;;;8.80;95.60;;;;;;5109504;28;20042;-72
2020/12/11 05:08:21;;;;;;;16.73;3.70;;;8.70;97.10;;;;;;5110140;28;20028;-72
2020/12/11 05:10:48;;;;;;;16.98;4.78;;;8.70;98.40;;;;;;5111472;28;20032;-71
2020/12/11 05:13:23;;;;;;;16.60;4.10;;;8.60;98.00;;;;;;5101874;28;20372;-72
2020/12/11 05:16:23;;;;;;;24.98;5.75;;;8.60;98.90;;;;;;5111976;28;20383;-72
2020/12/11 05:19:03;;;;;;;14.45;4.40;;;8.50;99.90;;;;;;5011053;28;20042;-72
2020/12/11 05:21:38;;;;;;;19.50;4.57;;;8.50;99.90;;;;;;5022303;28;20517;-74
2020/12/11 05:24:06;;;;;;;11.48;3.33;;;8.40;99.90;;;;;;5003378;28;20034;-72
2020/12/11 05:26:35;;;;;;;18.05;3.53;;;8.50;99.90;;;;;;5015140;28;20169;-73
2020/12/11 05:29:03;;;;;;;16.67;3.38;;;8.50;99.90;;;;;;5027806;28;20065;-73
2020/12/11 05:31:30;;;;;;;18.85;4.90;;;8.50;99.90;;;;;;5023298;28;20052;-73
2020/12/11 05:34:12;;;;;;;16.00;4.03;;;8.40;99.90;;;;;;5015126;28;20029;-73
2020/12/11 05:36:48;;;;;;;16.42;4.07;;;8.40;99.90;;;;;;5022361;28;20483;-73
2020/12/11 05:39:33;;;;;;;12.60;3.40;;;8.40;99.90;;;;;;5010492;28;20043;-72
2020/12/11 05:42:02;;;;;;;17.48;5.13;;;8.30;99.90;;;;;;5009011;28;20072;-72
2020/12/11 05:44:33;;;;;;;18.42;4.38;;;8.30;99.90;;;;;;5016651;28;20030;-72
2020/12/11 05:47:36;;;;;;;20.05;4.15;;;8.20;99.90;;;;;;5028991;28;20032;-72
2020/12/11 05:50:10;;;;;;;18.27;3.70;;;8.20;99.90;;;;;;4950654;29;20051;-72
2020/12/11 05:52:36;;;;;;;19.80;3.75;;;8.20;99.90;;;;;;4950194;29;20039;-72
2020/12/11 05:55:03;;;;;;;18.10;4.20;;;8.10;99.90;;;;;;5020798;28;20048;-72
2020/12/11 05:57:31;;;;;;;18.80;3.95;;;8.10;99.90;;;;;;5052656;28;20041;-73
2020/12/11 05:59:59;;;;;;;28.35;5.30;;;8.10;99.90;;;;;;5054766;28;20404;-72
2020/12/11 06:02:29;;;;;;;23.42;4.68;;;8.10;99.90;;;;;;5052979;28;20037;-72
2020/12/11 06:04:57;;;;;;;22.70;4.50;;;8.10;99.90;;;;;;5052372;28;20033;-73
2020/12/11 06:07:25;;;;;;;24.38;4.57;;;8.10;99.90;;;;;;5052736;28;20049;-72
2020/12/11 06:09:55;;;;;;;21.60;4.63;;;8.10;99.90;;;;;;5052412;28;20041;-73
2020/12/11 06:12:31;;;;;;;22.40;4.18;;;8.00;99.90;;;;;;5052132;28;20424;-73
2020/12/11 06:15:13;;;;;;;19.95;3.33;;;8.00;99.90;;;;;;5050833;28;20425;-73
2020/12/11 06:17:55;;;;;;;23.80;4.60;;;8.00;99.90;;;;;;5052676;28;20382;-72
2020/12/11 06:20:22;;;;;;;21.83;4.22;;;8.00;99.90;;;;;;5052199;28;20129;-73
2020/12/11 06:22:49;;;;;;;16.40;4.20;;;8.00;99.90;;;;;;5052294;28;20040;-72
2020/12/11 06:25:32;;;;;;;19.98;3.83;;;8.10;99.90;;;;;;5115004;28;20040;-73
2020/12/11 06:28:00;;;;;;;11.38;2.95;;;8.10;99.90;;;;;;5115046;28;20119;-72
2020/12/11 06:30:30;;;;;;;19.02;3.40;;;8.00;99.90;;;;;;5114800;28;20034;-74
2020/12/11 06:32:58;;;;;;;24.67;4.53;;;7.90;99.90;;;;;;5126514;27;20023;-72
2020/12/11 06:35:27;;;;;;;24.10;5.20;;;7.90;99.90;;;;;;5103604;28;20543;-72
2020/12/11 06:37:55;;;;;;;15.98;4.00;;;7.80;99.90;;;;;;5094286;28;20482;-73
2020/12/11 06:40:47;;;;;;;15.70;4.43;;;7.80;99.90;;;;;;5111912;28;20051;-73
2020/12/11 06:43:38;;;;;;;22.55;4.28;;;7.80;99.90;;;;;;5114177;28;20040;-72
2020/12/11 06:46:23;;;;;;;19.73;4.15;;;7.70;99.90;;;;;;5080586;28;20392;-72
2020/12/11 06:49:20;;;;;;;18.77;4.30;;;7.80;99.90;;;;;;5095047;28;20058;-73
2020/12/11 06:51:46;;;;;;;18.92;4.30;;;7.80;99.90;;;;;;5095799;28;20504;-73
2020/12/11 06:54:23;;;;;;;18.10;4.28;;;7.70;99.90;;;;;;5098516;28;20032;-73
2020/12/11 06:56:52;;;;;;;17.50;4.20;;;7.70;99.90;;;;;;5107557;28;20032;-73
2020/12/11 06:59:19;;;;;;;17.48;4.00;;;7.70;99.90;;;;;;5095065;28;20024;-73
2020/12/11 07:01:46;;;;;;;16.48;4.32;;;7.60;99.90;;;;;;5093543;28;20043;-73
2020/12/11 07:04:13;;;;;;;28.27;6.47;;;7.60;99.90;;;;;;5104566;28;20036;-74
2020/12/11 07:06:50;;;;;;;24.98;6.40;;;7.60;99.90;;;;;;5111481;28;20028;-73
2020/12/11 07:09:17;;;;;;;24.00;5.07;;;7.60;99.90;;;;;;5111779;28;20044;-73
2020/12/11 07:11:45;;;;;;;21.90;4.97;;;7.60;99.90;;;;;;5112196;28;20027;-74
2020/12/11 07:14:13;;;;;;;29.63;6.47;;;7.60;99.90;;;;;;5110200;28;20370;-73
2020/12/11 07:16:44;;;;;;;28.10;5.75;;;7.60;99.90;;;;;;5111444;28;20035;-73
2020/12/11 07:19:11;;;;;;;18.13;5.40;;;7.60;99.90;;;;;;5109163;28;20050;-72
2020/12/11 07:21:40;;;;;;;27.75;5.47;;;7.60;99.90;;;;;;5111545;28;20028;-73
2020/12/11 07:24:08;;;;;;;18.40;4.93;;;7.60;99.90;;;;;;5112644;27;20062;-72
2020/12/11 07:26:35;;;;;;;15.52;5.45;;;7.60;99.90;;;;;;5107486;28;20038;-74
2020/12/11 07:29:13;;;;;;;18.63;4.65;;;7.60;99.90;;;;;;5111954;28;20613;-74
2020/12/11 07:31:41;;;;;;;20.25;4.82;;;7.60;99.90;;;;;;5113842;28;20019;-74
2020/12/11 07:34:28;;;;;;;31.13;6.57;;;7.60;99.90;;;;;;5113264;28;20032;-76
2020/12/11 07:36:58;;;;;;;17.90;4.85;;;7.50;99.90;;;;;;5113669;28;20123;-74
2020/12/11 07:39:27;;;;;;;23.48;5.53;;;7.50;99.90;;;;;;5113799;28;20044;-74
2020/12/11 07:41:56;;;;;;;14.13;4.60;;;7.40;99.90;;;;;;5114039;28;20035;-75
2020/12/11 07:44:28;;;;;;;15.00;4.32;;;7.50;99.90;;;;;;5113334;28;20034;-74
2020/12/11 07:46:58;;;;;;;13.10;3.90;;;7.50;99.90;;;;;;5093117;28;20031;-73
2020/12/11 07:49:41;;;;;;;17.45;4.55;;;7.50;99.90;;;;;;5095232;28;20036;-74
2020/12/11 07:52:09;;;;;;;13.07;3.47;;;7.50;99.90;;;;;;5113244;28;20432;-73
2020/12/11 07:54:41;;;;;;;18.95;6.10;;;7.50;99.90;;;;;;5113358;28;20031;-74
2020/12/11 07:57:14;;;;;;;;;;;7.60;99.90;;;;;;5113121;28;20070;-74
2020/12/11 07:59:42;;;;;;;13.90;3.90;;;7.60;99.90;;;;;;5094591;28;19911;-73
2020/12/11 08:02:12;;;;;;;11.57;4.10;;;7.60;99.90;;;;;;5113056;28;20024;-72
2020/12/11 08:04:40;;;;;;;17.08;4.55;;;7.70;99.90;;;;;;5113393;28;20020;-76
2020/12/11 08:07:06;;;;;;;15.93;5.63;;;7.70;99.90;;;;;;5112729;28;20023;-73
2020/12/11 08:09:34;;;;;;;33.13;5.13;;;7.70;99.90;;;;;;5113064;28;20036;-74
2020/12/11 08:12:19;;;;;;;20.73;4.85;;;7.60;99.90;;;;;;5113090;28;20352;-75
2020/12/11 08:14:46;;;;;;;14.55;4.80;;;7.60;99.90;;;;;;5110805;28;20036;-74
2020/12/11 08:17:15;;;;;;;18.25;5.97;;;7.60;99.90;;;;;;5111931;28;20051;-73
2020/12/11 08:19:43;;;;;;;17.70;4.80;;;7.60;99.90;;;;;;5112727;28;20038;-73
2020/12/11 08:22:15;;;;;;;11.93;4.68;;;7.50;99.90;;;;;;5112445;28;20086;-73
2020/12/11 08:24:45;;;;;;;18.30;5.07;;;7.50;99.90;;;;;;5112140;28;20532;-73
2020/12/11 08:27:28;;;;;;;14.93;4.63;;;7.40;99.90;;;;;;5111830;28;20054;-71
2020/12/11 08:30:12;;;;;;;13.57;4.30;;;7.40;99.90;;;;;;5099840;28;20492;-71
2020/12/11 08:32:40;;;;;;;14.15;5.40;;;7.40;99.90;;;;;;5102983;28;20055;-71
2020/12/11 08:35:18;;;;;;;13.20;4.40;;;7.30;99.90;;;;;;5106494;28;20031;-73
2020/12/11 08:37:56;;;;;;;19.77;6.18;;;7.10;99.90;;;;;;5093409;28;20036;-73
2020/12/11 08:40:29;;;;;;;15.48;3.78;;;7.10;99.90;;;;;;5091914;28;20028;-74
2020/12/11 08:43:31;;;;;;;14.88;4.47;;;7.10;99.90;;;;;;5095838;28;20024;-73
2020/12/11 08:48:56;;;;;;;18.20;5.82;;;7.00;99.90;;;;;;5112352;28;20023;-73
2020/12/11 08:51:22;;;;;;;;;;;6.90;99.90;;;;;;5112780;28;20024;-76
2020/12/11 08:53:56;;;;;;;13.43;4.00;;;6.90;99.90;;;;;;5110836;28;19903;-74
2020/12/11 08:56:23;;;;;;;15.07;4.13;;;6.90;99.90;;;;;;5111363;28;20391;-74
2020/12/11 08:58:50;;;;;;;14.18;4.40;;;6.90;99.90;;;;;;5112096;28;20031;-76
2020/12/11 09:01:18;;;;;;;11.93;3.80;;;6.90;99.90;;;;;;5111911;28;20371;-75
2020/12/11 09:03:44;;;;;;;11.48;3.30;;;6.90;99.90;;;;;;5111880;28;20024;-73
2020/12/11 09:06:11;;;;;;;12.85;3.30;;;7.00;99.90;;;;;;5111703;28;20032;-74
2020/12/11 09:08:38;;;;;;;19.20;3.95;;;7.10;99.90;;;;;;5110029;28;20035;-73
2020/12/11 09:11:05;;;;;;;14.80;4.10;;;7.20;99.90;;;;;;5111321;28;20325;-73
2020/12/11 09:13:32;;;;;;;10.85;3.97;;;7.30;99.90;;;;;;5111810;28;20499;-73
2020/12/11 09:15:59;;;;;;;10.70;3.13;;;7.40;99.90;;;;;;5105138;28;20040;-73
2020/12/11 09:18:26;;;;;;;15.50;3.85;;;7.50;99.90;;;;;;5092861;28;20035;-73
2020/12/11 09:20:54;;;;;;;13.20;3.40;;;7.60;99.90;;;;;;5091530;28;20035;-74
2020/12/11 09:23:21;;;;;;;19.83;4.32;;;7.60;99.90;;;;;;5107651;28;20031;-74
2020/12/11 09:25:48;;;;;;;11.40;3.25;;;7.60;99.90;;;;;;5110004;28;20031;-73
2020/12/11 09:28:18;;;;;;;22.02;4.25;;;7.60;99.90;;;;;;5110708;28;20035;-73
2020/12/11 09:30:46;;;;;;;14.88;3.67;;;7.60;99.90;;;;;;5091315;28;20040;-74
2020/12/11 09:33:22;;;;;;;16.23;4.68;;;7.60;99.90;;;;;;5091240;28;20034;-74
2020/12/11 09:35:49;;;;;;;19.90;5.70;;;7.50;99.90;;;;;;5091193;28;20047;-74
2020/12/11 09:38:16;;;;;;;16.55;6.53;;;7.50;99.90;;;;;;5107681;28;20041;-74
2020/12/11 09:40:55;;;;;;;16.20;5.40;;;7.40;99.90;;;;;;5109269;28;20040;-74
2020/12/11 09:45:56;;;;;;;14.18;4.43;;;7.30;99.90;;;;;;5110795;28;20042;-74
2020/12/11 09:51:10;;;;;;;12.70;3.75;;;7.30;99.90;;;;;;5110327;28;20039;-73
2020/12/11 09:54:00;;;;;;;14.70;5.13;;;7.30;99.90;;;;;;5108847;28;20020;-76
2020/12/11 09:56:27;;;;;;;13.73;4.32;;;7.20;99.90;;;;;;5106530;28;20381;-75
2020/12/11 09:59:00;;;;;;;15.82;4.20;;;7.20;99.90;;;;;;5100163;28;20039;-74
2020/12/11 10:01:45;;;;;;;8.90;3.00;;;7.20;99.90;;;;;;5088942;28;20036;-75
2020/12/11 10:04:12;;;;;;;16.17;3.88;;;7.20;99.90;;;;;;5103371;28;20403;-75
2020/12/11 10:06:39;;;;;;;15.43;3.22;;;7.20;99.90;;;;;;5111233;28;20036;-73
2020/12/11 10:09:06;;;;;;;10.77;2.20;;;7.10;99.90;;;;;;5097536;28;20039;-74
2020/12/11 10:11:34;;;;;;;14.55;2.75;;;7.10;99.90;;;;;;5094250;28;20376;-73
2020/12/11 10:14:24;;;;;;;8.48;2.05;;;7.10;99.90;;;;;;5108127;28;20046;-74
2020/12/11 10:16:52;;;;;;;12.95;2.28;;;7.00;99.90;;;;;;5106889;28;20032;-73
2020/12/11 10:19:20;;;;;;;8.07;1.80;;;7.10;99.90;;;;;;5097464;28;20046;-74
2020/12/11 10:21:51;;;;;;;13.63;2.50;;;7.10;99.90;;;;;;5108787;28;20027;-74
2020/12/11 10:24:19;;;;;;;10.80;2.00;;;7.10;99.90;;;;;;5090786;28;20016;-74
2020/12/11 10:26:46;;;;;;;7.70;1.73;;;7.10;99.90;;;;;;5091503;28;20016;-75
2020/12/11 10:29:13;;;;;;;8.68;1.60;;;7.10;99.90;;;;;;5097208;28;20024;-72
2020/12/11 10:31:44;;;;;;;8.02;2.25;;;7.10;99.90;;;;;;5110690;28;20067;-72
2020/12/11 10:34:16;;;;;;;8.68;2.40;;;7.10;99.90;;;;;;5110406;28;20039;-73
2020/12/11 10:36:43;;;;;;;7.68;1.92;;;7.10;99.90;;;;;;5090333;28;20032;-72
2020/12/11 10:39:10;;;;;;;8.30;2.10;;;7.10;99.90;;;;;;5090282;28;20036;-72
2020/12/11 10:41:37;;;;;;;4.47;1.35;;;7.00;99.90;;;;;;5091534;28;20028;-72
2020/12/11 10:44:06;;;;;;;9.43;1.83;;;7.10;99.90;;;;;;5108011;28;20040;-71
2020/12/11 10:46:32;;;;;;;9.70;2.00;;;7.00;99.90;;;;;;5113436;28;20028;-73
2020/12/11 10:48:59;;;;;;;9.38;1.45;;;7.00;99.90;;;;;;5109067;28;20038;-72
2020/12/11 10:51:27;;;;;;;12.02;2.75;;;6.90;99.90;;;;;;5104082;28;20032;-71
2020/12/11 10:53:53;;;;;;;11.02;2.13;;;7.00;99.90;;;;;;5108283;28;20479;-72
2020/12/11 10:56:20;;;;;;;11.13;2.65;;;7.00;99.90;;;;;;5101949;28;20599;-72
2020/12/11 10:58:48;;;;;;;13.73;1.95;;;7.00;99.90;;;;;;5107282;28;20384;-71
2020/12/11 11:01:15;;;;;;;10.43;2.92;;;7.00;99.90;;;;;;5105969;28;20028;-71
2020/12/11 11:03:43;;;;;;;7.25;1.77;;;7.00;99.90;;;;;;5113648;28;20039;-71
2020/12/11 11:06:20;;;;;;;6.00;1.42;;;6.90;99.90;;;;;;5103579;28;20040;-72
2020/12/11 11:11:22;;;;;;;6.90;1.10;;;6.90;99.90;;;;;;5093358;28;20555;-72
2020/12/11 11:17:25;;;;;;;7.80;1.48;;;7.00;99.90;;;;;;5093662;28;20036;-72
2020/12/11 11:29:35;;;;;;;6.18;1.88;;;7.00;99.90;;;;;;5094473;28;20032;-73
2020/12/11 11:32:02;;;;;;;9.05;1.67;;;7.00;99.90;;;;;;5101518;28;20059;-74
2020/12/11 11:34:29;;;;;;;7.43;1.83;;;7.00;99.90;;;;;;5109078;28;20039;-73
2020/12/11 11:36:56;;;;;;;10.50;1.58;;;7.00;99.90;;;;;;5112971;28;20462;-74
2020/12/11 11:39:23;;;;;;;6.57;1.88;;;7.10;99.90;;;;;;5112680;28;20478;-74
2020/12/11 11:41:55;;;;;;;6.68;1.50;;;7.00;99.90;;;;;;5105465;28;20055;-73
2020/12/11 11:47:12;;;;;;;6.47;1.38;;;7.00;99.90;;;;;;5031422;28;20041;-74
2020/12/11 11:54:53;;;;;;;3.83;1.17;;;7.00;99.90;;;;;;5049103;28;20041;-74
2020/12/11 11:57:20;;;;;;;6.28;1.38;;;7.00;99.90;;;;;;5049643;28;20603;-75
2020/12/11 11:59:47;;;;;;;6.25;1.08;;;7.00;99.90;;;;;;5049922;28;20485;-74
2020/12/11 12:02:14;;;;;;;7.95;1.48;;;6.90;99.90;;;;;;5050196;28;20032;-73
2020/12/11 12:04:42;;;;;;;3.65;1.02;;;6.90;99.90;;;;;;5049444;28;20043;-72
2020/12/11 12:07:09;;;;;;;6.88;1.42;;;6.90;99.90;;;;;;5049130;28;20036;-72
2020/12/11 12:09:36;;;;;;;7.40;1.77;;;6.90;99.90;;;;;;5048916;28;20514;-72
2020/12/11 12:12:06;;;;;;;10.32;1.70;;;6.90;99.90;;;;;;5049823;28;20056;-72
2020/12/11 12:14:33;;;;;;;9.48;1.60;;;6.90;99.90;;;;;;5039351;28;20026;-72
2020/12/11 12:17:03;;;;;;;10.20;1.83;;;6.80;99.90;;;;;;5029771;28;20030;-73
2020/12/11 12:19:35;;;;;;;10.95;2.25;;;6.80;99.90;;;;;;5031906;28;20397;-72
2020/12/11 12:27:27;;;;;;;7.05;1.95;;;6.80;99.90;;;;;;5089648;28;20507;-72
2020/12/11 12:29:55;;;;;;;13.05;2.22;;;6.80;99.90;;;;;;5092548;28;20381;-72
2020/12/11 12:32:25;;;;;;;11.00;1.90;;;6.80;99.90;;;;;;5092236;28;20409;-72
2020/12/11 12:37:57;;;;;;;15.00;3.58;;;6.60;99.90;;;;;;5061185;28;20029;-72
2020/12/11 12:43:13;;;;;;;7.72;2.65;;;6.70;99.90;;;;;;5057439;28;20036;-72
2020/12/11 12:45:40;;;;;;;7.88;2.28;;;6.70;99.90;;;;;;5069062;28;20028;-72
2020/12/11 12:48:07;;;;;;;7.47;3.20;;;6.70;99.90;;;;;;5055223;28;20033;-72
2020/12/11 12:50:34;;;;;;;5.75;2.40;;;6.70;99.90;;;;;;5060959;28;20036;-73
2020/12/11 12:53:01;;;;;;;8.00;2.08;;;6.80;99.90;;;;;;5068681;28;20151;-73
2020/12/11 12:55:43;;;;;;;9.90;3.20;;;6.80;99.90;;;;;;5051957;28;20045;-73
2020/12/11 12:58:12;;;;;;;;;;;6.80;99.90;;;;;;5049856;28;20469;-73
2020/12/11 13:01:03;;;;;;;7.97;2.92;;;6.90;99.90;;;;;;5056557;28;20361;-73
2020/12/11 13:03:44;;;;;;;8.63;3.60;;;6.90;99.90;;;;;;5063765;28;20037;-73
2020/12/11 13:06:11;;;;;;;9.43;4.20;;;6.90;99.90;;;;;;5047927;28;20041;-73
2020/12/11 13:08:38;;;;;;;11.05;3.70;;;7.00;99.90;;;;;;5078693;28;20024;-73
2020/12/11 13:11:05;;;;;;;9.95;4.45;;;7.00;99.90;;;;;;5110198;28;20031;-73
2020/12/11 13:13:32;;;;;;;13.93;4.90;;;7.10;99.90;;;;;;5111673;28;20055;-73
2020/12/11 13:15:59;;;;;;;19.58;6.32;;;7.10;99.90;;;;;;5097423;28;20024;-73
2020/12/11 13:18:25;;;;;;;15.23;4.85;;;7.10;99.90;;;;;;5091882;28;20027;-75
2020/12/11 13:20:53;;;;;;;11.90;4.40;;;7.20;99.90;;;;;;5109938;28;20051;-73
2020/12/11 13:28:50;;;;;;;20.10;5.45;;;7.20;99.90;;;;;;5110011;28;20035;-73
2020/12/11 13:31:18;;;;;;;12.80;4.50;;;7.30;99.90;;;;;;5092093;28;20043;-74
2020/12/11 13:33:45;;;;;;;18.73;6.50;;;7.30;99.90;;;;;;5091220;28;20360;-73
2020/12/11 13:36:11;;;;;;;9.98;4.82;;;7.30;99.90;;;;;;5091383;28;20320;-72
2020/12/11 13:38:38;;;;;;;15.30;4.57;;;7.40;99.90;;;;;;5092112;28;20032;-72
2020/12/11 13:41:05;;;;;;;16.23;5.57;;;7.40;99.90;;;;;;5107345;28;20032;-72
2020/12/11 13:43:32;;;;;;;11.80;5.18;;;7.40;99.90;;;;;;5091944;28;20039;-73
2020/12/11 13:45:59;;;;;;;14.98;5.45;;;7.40;99.90;;;;;;5090371;28;20039;-73
2020/12/11 13:48:26;;;;;;;15.50;4.97;;;7.40;99.90;;;;;;5101863;28;20035;-72